createdAt,value
2023-02-06T00:01:30.131Z,-1.49
2023-02-06T00:03:57.227Z,-1.52
2023-02-06T00:06:24.368Z,-1.53
2023-02-06T00:08:51.581Z,-1.52
2023-02-06T00:11:18.922Z,-1.59
2023-02-06T00:13:46.496Z,-1.59
2023-02-06T00:16:24.998Z,-1.54
2023-02-06T00:18:52.983Z,-1.69
2023-02-06T00:21:22.166Z,-1.58
2023-02-06T00:23:49.485Z,-1.56
2023-02-06T00:26:16.910Z,-1.64
2023-02-06T00:28:44.984Z,-1.59
2023-02-06T00:31:12.588Z,-1.61
2023-02-06T00:33:40.169Z,-1.68
2023-02-06T00:36:08.168Z,-1.59
2023-02-06T00:38:37.108Z,-1.63
2023-02-06T00:41:04.521Z,-1.66
2023-02-06T00:43:31.657Z,-1.66
2023-02-06T00:45:58.819Z,-1.69
2023-02-06T00:48:26.497Z,-1.73
2023-02-06T00:50:54.023Z,-1.61
2023-02-06T00:53:21.532Z,-1.63
2023-02-06T00:55:48.626Z,-1.61
2023-02-06T00:58:15.709Z,-1.64
2023-02-06T01:00:44.576Z,-1.69
2023-02-06T01:03:12.173Z,-1.72
2023-02-06T01:05:39.271Z,-1.62
2023-02-06T01:08:06.331Z,-1.59
2023-02-06T01:10:33.521Z,-1.62
2023-02-06T01:13:00.650Z,-1.60
2023-02-06T01:15:28.011Z,-1.64
2023-02-06T01:17:55.066Z,-1.74
2023-02-06T01:20:23.138Z,-1.75
2023-02-06T01:22:50.709Z,-1.82
2023-02-06T01:25:17.805Z,-1.99
2023-02-06T01:27:44.939Z,-1.88
2023-02-06T01:30:12.689Z,-1.88
2023-02-06T01:32:41.407Z,-2.03
2023-02-06T01:35:10.648Z,-1.96
2023-02-06T01:37:39.086Z,-1.95
2023-02-06T01:40:09.399Z,-2.30
2023-02-06T01:42:37.516Z,-1.87
2023-02-06T01:45:38.362Z,-1.81
2023-02-06T01:48:11.315Z,-1.98
2023-02-06T01:50:41.730Z,-1.98
2023-02-06T01:53:10.429Z,-1.94
2023-02-06T01:55:41.505Z,-1.94
2023-02-06T01:58:11.399Z,-2.00
2023-02-06T02:00:38.609Z,-1.87
2023-02-06T02:03:05.867Z,-1.86
2023-02-06T02:05:34.342Z,-1.88
2023-02-06T02:08:10.495Z,-1.88
2023-02-06T02:10:37.991Z,-2.00
2023-02-06T02:13:05.017Z,-2.01
2023-02-06T02:16:04.302Z,-1.85
2023-02-06T02:18:59.371Z,-2.82
2023-02-06T02:22:03.952Z,-1.84
2023-02-06T02:24:58.082Z,-1.86
2023-02-06T02:27:43.334Z,-1.98
2023-02-06T02:30:41.511Z,-2.00
2023-02-06T02:33:58.960Z,-2.05
2023-02-06T02:37:10.752Z,-2.08
2023-02-06T02:40:01.167Z,-2.24
2023-02-06T02:42:54.249Z,-2.12
2023-02-06T02:45:55.672Z,-2.09
2023-02-06T02:48:30.224Z,-2.16
2023-02-06T02:51:00.144Z,-2.23
2023-02-06T02:53:27.867Z,-2.58
2023-02-06T02:55:55.386Z,-2.45
2023-02-06T02:58:29.985Z,-2.37
2023-02-06T03:01:11.639Z,-2.37
2023-02-06T03:03:42.313Z,-2.40
2023-02-06T03:06:24.399Z,-2.40
2023-02-06T03:08:52.950Z,-2.84
2023-02-06T03:11:24.009Z,-2.43
2023-02-06T03:14:14.737Z,-2.45
2023-02-06T03:16:50.839Z,-2.53
2023-02-06T03:19:26.832Z,-2.41
2023-02-06T03:21:53.958Z,-2.42
2023-02-06T03:24:25.938Z,-2.46
2023-02-06T03:26:58.486Z,-2.84
2023-02-06T03:29:27.957Z,-2.48
2023-02-06T03:32:02.415Z,-2.41
2023-02-06T03:34:40.770Z,-2.49
2023-02-06T03:37:08.637Z,-2.69
2023-02-06T03:39:36.237Z,-2.58
2023-02-06T03:42:05.506Z,-2.56
2023-02-06T03:44:37.394Z,-2.68
2023-02-06T03:47:07.120Z,-2.65
2023-02-06T03:49:38.126Z,-2.61
2023-02-06T03:52:15.684Z,-2.61
2023-02-06T03:54:48.301Z,-2.67
2023-02-06T03:57:19.501Z,-2.73
2023-02-06T03:59:47.326Z,-2.73
2023-02-06T04:02:16.421Z,-3.19
2023-02-06T04:04:45.593Z,-2.77
2023-02-06T04:07:15.359Z,-2.88
2023-02-06T04:09:42.647Z,-3.28
2023-02-06T04:12:09.904Z,-2.84
2023-02-06T04:14:37.350Z,-2.77
2023-02-06T04:17:06.122Z,-2.79
2023-02-06T04:19:34.283Z,-2.85
2023-02-06T04:22:02.156Z,-2.73
2023-02-06T04:24:30.922Z,-2.79
2023-02-06T04:26:58.574Z,-3.29
2023-02-06T04:29:25.934Z,-2.81
2023-02-06T04:31:52.966Z,-2.77
2023-02-06T04:34:20.024Z,-2.81
2023-02-06T04:36:47.299Z,-2.78
2023-02-06T04:39:14.302Z,-2.79
2023-02-06T04:41:41.337Z,-2.84
2023-02-06T04:44:08.326Z,-2.84
2023-02-06T04:46:35.368Z,-2.99
2023-02-06T04:49:02.578Z,-2.86
2023-02-06T04:51:29.680Z,-3.00
2023-02-06T04:53:56.796Z,-2.78
2023-02-06T04:56:25.679Z,-2.83
2023-02-06T04:58:52.859Z,-2.95
2023-02-06T05:01:20.903Z,-2.79
2023-02-06T05:03:48.048Z,-3.07
2023-02-06T05:06:15.765Z,-3.31
2023-02-06T05:08:42.916Z,-2.85
2023-02-06T05:11:10.424Z,-2.86
2023-02-06T05:13:37.444Z,-2.99
2023-02-06T05:16:08.839Z,-3.36
2023-02-06T05:18:36.174Z,-2.98
2023-02-06T05:21:05.008Z,-2.95
2023-02-06T05:23:32.744Z,-2.79
2023-02-06T05:26:01.131Z,-2.93
2023-02-06T05:28:30.075Z,-2.76
2023-02-06T05:30:57.559Z,-2.80
2023-02-06T05:33:24.692Z,-2.79
2023-02-06T05:35:51.722Z,-2.93
2023-02-06T05:38:19.181Z,-2.88
2023-02-06T05:40:46.227Z,-2.81
2023-02-06T05:43:13.317Z,-3.46
2023-02-06T05:45:40.667Z,-2.88
2023-02-06T05:48:07.906Z,-2.90
2023-02-06T05:50:34.915Z,-2.98
2023-02-06T05:53:04.389Z,-2.83
2023-02-06T05:55:31.379Z,-2.86
2023-02-06T05:57:58.660Z,-3.31
2023-02-06T06:00:25.847Z,-2.91
2023-02-06T06:02:52.853Z,-2.93
2023-02-06T06:05:21.453Z,-2.96
2023-02-06T06:07:48.529Z,-2.90
2023-02-06T06:10:15.611Z,-3.03
2023-02-06T06:12:42.662Z,-3.00
2023-02-06T06:15:10.060Z,-2.88
2023-02-06T06:17:37.085Z,-2.86
2023-02-06T06:20:04.912Z,-2.87
2023-02-06T06:22:32.024Z,-2.93
2023-02-06T06:24:59.127Z,-2.82
2023-02-06T06:27:26.209Z,-2.78
2023-02-06T06:29:53.242Z,-2.86
2023-02-06T06:32:20.414Z,-2.72
2023-02-06T06:34:47.383Z,-2.80
2023-02-06T06:37:14.492Z,-2.87
2023-02-06T06:39:41.516Z,-2.83
2023-02-06T06:42:08.870Z,-2.89
2023-02-06T06:44:35.893Z,-2.78
2023-02-06T06:47:03.810Z,-2.91
2023-02-06T06:49:30.850Z,-2.80
2023-02-06T06:51:57.803Z,-2.92
2023-02-06T06:54:24.808Z,-2.83
2023-02-06T06:56:51.768Z,-2.82
2023-02-06T06:59:18.789Z,-2.79
2023-02-06T07:01:46.148Z,-2.92
2023-02-06T07:04:13.156Z,-2.94
2023-02-06T07:06:40.297Z,-2.80
2023-02-06T07:09:07.436Z,-2.97
2023-02-06T07:11:34.445Z,-2.94
2023-02-06T07:14:01.555Z,-2.93
2023-02-06T07:16:28.615Z,-2.87
2023-02-06T07:18:55.707Z,-2.80
2023-02-06T07:21:22.769Z,-2.79
2023-02-06T07:23:49.765Z,-2.80
2023-02-06T07:26:16.828Z,-2.89
2023-02-06T07:28:43.848Z,-2.82
2023-02-06T07:31:11.084Z,-2.78
2023-02-06T07:33:38.108Z,-2.82
2023-02-06T07:36:05.329Z,-2.86
2023-02-06T07:38:32.345Z,-2.75
2023-02-06T07:41:03.577Z,-2.70
2023-02-06T07:43:31.557Z,-2.65
2023-02-06T07:46:01.043Z,-2.73
2023-02-06T07:48:28.958Z,-2.62
2023-02-06T07:50:56.418Z,-2.61
2023-02-06T07:53:24.072Z,-2.64
2023-02-06T07:55:51.116Z,-2.57
2023-02-06T07:58:18.423Z,-2.54
2023-02-06T08:00:46.024Z,-2.62
2023-02-06T08:03:13.082Z,-2.50
2023-02-06T08:05:40.253Z,-2.48
2023-02-06T08:08:07.972Z,-2.41
2023-02-06T08:10:35.007Z,-2.37
2023-02-06T08:13:02.187Z,-2.35
2023-02-06T08:15:29.387Z,-2.41
2023-02-06T08:17:57.002Z,-2.52
2023-02-06T08:20:23.985Z,-2.54
2023-02-06T08:22:50.989Z,-2.58
2023-02-06T08:25:18.049Z,-2.58
2023-02-06T08:27:45.062Z,-2.65
2023-02-06T08:30:13.449Z,-2.43
2023-02-06T08:32:40.446Z,-2.45
2023-02-06T08:35:07.699Z,-2.44
2023-02-06T08:37:34.699Z,-2.34
2023-02-06T08:40:01.825Z,-2.23
2023-02-06T08:42:30.361Z,-2.25
2023-02-06T08:44:57.361Z,-2.33
2023-02-06T08:47:24.452Z,-2.39
2023-02-06T08:49:51.812Z,-2.49
2023-02-06T08:52:19.037Z,-2.39
2023-02-06T08:54:46.207Z,-2.36
2023-02-06T08:57:13.224Z,-2.36
2023-02-06T08:59:41.712Z,-2.37
2023-02-06T09:02:11.518Z,-2.32
2023-02-06T09:04:39.233Z,-2.30
2023-02-06T09:07:06.372Z,-2.34
2023-02-06T09:09:33.370Z,-2.26
2023-02-06T09:12:03.961Z,-2.25
2023-02-06T09:14:31.874Z,-2.64
2023-02-06T09:16:58.902Z,-2.31
2023-02-06T09:19:26.527Z,-2.22
2023-02-06T09:21:53.587Z,-2.27
2023-02-06T09:24:20.909Z,-2.42
2023-02-06T09:26:59.517Z,-2.35
2023-02-06T09:29:32.066Z,-2.43
2023-02-06T09:31:59.530Z,-2.33
2023-02-06T09:34:27.231Z,-2.25
2023-02-06T09:36:58.024Z,-2.27
2023-02-06T09:39:26.042Z,-2.28
2023-02-06T09:42:03.363Z,-2.30
2023-02-06T09:44:42.178Z,-2.28
2023-02-06T09:47:23.680Z,-2.15
2023-02-06T09:49:55.133Z,-2.13
2023-02-06T09:52:32.087Z,-2.12
2023-02-06T09:55:17.676Z,-2.02
2023-02-06T09:58:10.578Z,-2.06
2023-02-06T10:00:49.551Z,-2.10
2023-02-06T10:03:39.349Z,-2.19
2023-02-06T10:06:12.881Z,-2.22
2023-02-06T10:09:06.331Z,-2.18
2023-02-06T10:11:59.121Z,-2.19
2023-02-06T10:14:56.657Z,-2.23
2023-02-06T10:17:25.519Z,-2.15
2023-02-06T10:20:03.976Z,-2.10
2023-02-06T10:22:55.897Z,-2.00
2023-02-06T10:25:39.204Z,-2.00
2023-02-06T10:28:23.065Z,-2.26
2023-02-06T10:31:04.074Z,-1.95
2023-02-06T10:33:57.102Z,-2.00
2023-02-06T10:36:36.104Z,-1.87
2023-02-06T10:39:29.268Z,-1.84
2023-02-06T10:42:05.298Z,-1.91
2023-02-06T10:44:51.259Z,-1.98
2023-02-06T10:47:25.359Z,-1.90
2023-02-06T10:50:03.189Z,-2.14
2023-02-06T10:52:35.343Z,-2.16
2023-02-06T10:55:18.936Z,-2.15
2023-02-06T10:57:47.487Z,-2.21
2023-02-06T11:00:28.143Z,-2.11
2023-02-06T11:03:07.702Z,-2.02
2023-02-06T11:05:36.289Z,-1.92
2023-02-06T11:08:30.135Z,-1.86
2023-02-06T11:10:57.353Z,-1.85
2023-02-06T11:13:28.685Z,-1.84
2023-02-06T11:16:02.945Z,-1.82
2023-02-06T11:18:34.712Z,-2.17
2023-02-06T11:21:02.821Z,-1.74
2023-02-06T11:23:31.587Z,-1.75
2023-02-06T11:26:20.210Z,-1.89
2023-02-06T11:28:56.161Z,-1.99
2023-02-06T11:31:59.661Z,-1.98
2023-02-06T11:34:28.582Z,-2.10
2023-02-06T11:37:06.938Z,-2.20
2023-02-06T11:39:37.025Z,-2.14
2023-02-06T11:42:18.989Z,-2.19
2023-02-06T11:44:49.028Z,-2.18
2023-02-06T11:47:38.063Z,-1.96
2023-02-06T11:50:34.809Z,-1.91
2023-02-06T11:53:09.778Z,-2.34
2023-02-06T11:55:39.709Z,-2.32
2023-02-06T11:58:09.741Z,-2.14
2023-02-06T12:00:38.288Z,-2.04
2023-02-06T12:03:06.280Z,-1.99
2023-02-06T12:05:39.163Z,-1.99
2023-02-06T12:08:13.727Z,-1.96
2023-02-06T12:10:49.527Z,-1.80
2023-02-06T12:13:22.449Z,-1.71
2023-02-06T12:15:57.883Z,-1.73
2023-02-06T12:18:35.985Z,-1.70
2023-02-06T12:21:24.570Z,-1.70
2023-02-06T12:24:02.481Z,-1.74
2023-02-06T12:26:33.794Z,-2.08
2023-02-06T12:29:40.600Z,-1.84
2023-02-06T12:32:18.483Z,-2.41
2023-02-06T12:34:57.570Z,-2.10
2023-02-06T12:37:43.138Z,-2.06
2023-02-06T12:40:43.635Z,-1.98
2023-02-06T12:43:34.179Z,-2.12
2023-02-06T12:46:10.525Z,-2.39
2023-02-06T12:48:59.779Z,-2.28
2023-02-06T12:51:41.765Z,-2.27
2023-02-06T12:54:36.311Z,-2.51
2023-02-06T12:57:15.873Z,-2.29
2023-02-06T12:59:57.533Z,-2.04
2023-02-06T13:03:05.352Z,-2.16
2023-02-06T13:05:45.162Z,-2.18
2023-02-06T13:08:19.226Z,-2.40
2023-02-06T13:10:50.559Z,-2.36
2023-02-06T13:13:33.353Z,-2.29
2023-02-06T13:16:00.728Z,-2.29
2023-02-06T13:19:01.699Z,-2.28
2023-02-06T13:21:34.133Z,-2.41
2023-02-06T13:24:04.088Z,-2.56
2023-02-06T13:26:51.702Z,-2.46
2023-02-06T13:29:22.559Z,-2.50
2023-02-06T13:31:49.558Z,-2.60
2023-02-06T13:34:17.977Z,-2.55
2023-02-06T13:36:51.381Z,-2.49
2023-02-06T13:39:27.801Z,-2.41
2023-02-06T13:41:56.703Z,-2.44
2023-02-06T13:44:36.902Z,-2.43
2023-02-06T13:47:09.661Z,-2.38
2023-02-06T13:50:14.090Z,-2.39
2023-02-06T13:52:53.141Z,-2.54
2023-02-06T13:55:57.005Z,-2.50
2023-02-06T13:58:43.977Z,-2.58
2023-02-06T14:01:15.036Z,-2.67
2023-02-06T14:03:48.545Z,-2.48
2023-02-06T14:06:24.456Z,-2.54
2023-02-06T14:09:13.145Z,-2.60
2023-02-06T14:12:10.812Z,-2.58
2023-02-06T14:15:31.509Z,-2.49
2023-02-06T14:18:24.185Z,-2.56
2023-02-06T14:21:16.068Z,-2.58
2023-02-06T14:24:01.712Z,-2.63
2023-02-06T14:26:45.686Z,-2.68
2023-02-06T14:29:31.346Z,-2.66
2023-02-06T14:32:35.968Z,-2.68
2023-02-06T14:35:34.169Z,-2.68
2023-02-06T14:38:03.933Z,-2.66
2023-02-06T14:40:36.632Z,-2.68
2023-02-06T14:43:07.438Z,-2.72
2023-02-06T14:45:42.010Z,-2.73
2023-02-06T14:48:40.236Z,-2.86
2023-02-06T14:51:18.188Z,-2.85
2023-02-06T14:53:55.691Z,-2.70
2023-02-06T14:56:36.826Z,-2.66
2023-02-06T14:59:13.018Z,-2.66
2023-02-06T15:01:41.168Z,-2.65
2023-02-06T15:04:17.873Z,-2.60
2023-02-06T15:06:52.835Z,-2.55
2023-02-06T15:09:33.402Z,-2.49
2023-02-06T15:12:04.721Z,-2.73
2023-02-06T15:14:34.860Z,-2.59
2023-02-06T15:17:02.980Z,-2.75
2023-02-06T15:19:32.871Z,-2.76
2023-02-06T15:22:13.275Z,-2.65
2023-02-06T15:25:00.246Z,-2.68
2023-02-06T15:27:32.951Z,-3.14
2023-02-06T15:30:01.758Z,-2.72
2023-02-06T15:32:40.113Z,-2.69
2023-02-06T15:35:35.202Z,-2.70
2023-02-06T15:38:10.063Z,-2.72
2023-02-06T15:40:40.117Z,-3.00
2023-02-06T15:43:13.721Z,-2.83
2023-02-06T15:45:41.558Z,-2.81
2023-02-06T15:48:43.673Z,-2.71
2023-02-06T15:51:20.600Z,-2.84
2023-02-06T15:53:49.662Z,-2.81
2023-02-06T15:56:26.948Z,-2.69
2023-02-06T15:59:03.941Z,-2.65
2023-02-06T16:01:33.729Z,-2.56
2023-02-06T16:04:24.269Z,-2.70
2023-02-06T16:07:19.252Z,-2.45
2023-02-06T16:09:52.355Z,-2.42
2023-02-06T16:12:21.584Z,-2.37
2023-02-06T16:14:56.278Z,-2.42
2023-02-06T16:17:36.047Z,-2.41
2023-02-06T16:20:24.188Z,-2.57
2023-02-06T16:22:51.649Z,-2.46
2023-02-06T16:25:26.049Z,-2.54
2023-02-06T16:27:53.645Z,-2.42
2023-02-06T16:30:23.064Z,-2.52
2023-02-06T16:32:50.878Z,-2.38
2023-02-06T16:35:18.111Z,-2.46
2023-02-06T16:37:45.742Z,-2.34
2023-02-06T16:40:12.835Z,-2.29
2023-02-06T16:42:41.673Z,-2.34
2023-02-06T16:45:23.660Z,-2.26
2023-02-06T16:47:51.306Z,-2.29
2023-02-06T16:50:18.592Z,-2.31
2023-02-06T16:52:51.207Z,-2.22
2023-02-06T16:55:23.234Z,-2.32
2023-02-06T16:57:54.969Z,-2.10
2023-02-06T17:00:32.018Z,-2.16
2023-02-06T17:02:59.275Z,-2.08
2023-02-06T17:05:28.086Z,-2.17
2023-02-06T17:07:55.577Z,-2.14
2023-02-06T17:10:25.444Z,-2.16
2023-02-06T17:12:52.690Z,-2.11
2023-02-06T17:15:20.441Z,-2.22
2023-02-06T17:17:48.064Z,-1.98
2023-02-06T17:20:23.083Z,-2.14
2023-02-06T17:22:50.997Z,-2.12
2023-02-06T17:25:18.144Z,-2.28
2023-02-06T17:27:45.190Z,-2.27
2023-02-06T17:30:18.616Z,-2.20
2023-02-06T17:32:45.660Z,-2.44
2023-02-06T17:35:12.791Z,-2.35
2023-02-06T17:37:39.956Z,-2.35
2023-02-06T17:40:07.845Z,-2.21
2023-02-06T17:42:34.952Z,-2.41
2023-02-06T17:45:02.067Z,-2.35
2023-02-06T17:47:30.582Z,-2.48
2023-02-06T17:49:57.743Z,-2.49
2023-02-06T17:52:24.817Z,-2.35
2023-02-06T17:54:51.961Z,-2.25
2023-02-06T17:57:18.988Z,-2.25
2023-02-06T17:59:46.037Z,-2.26
2023-02-06T18:02:16.567Z,-2.20
2023-02-06T18:04:43.872Z,-2.23
2023-02-06T18:07:10.976Z,-2.34
2023-02-06T18:09:38.028Z,-2.80
2023-02-06T18:12:05.128Z,-2.14
2023-02-06T18:14:33.592Z,-2.24
2023-02-06T18:17:00.595Z,-2.26
2023-02-06T18:19:27.669Z,-2.23
2023-02-06T18:21:54.747Z,-2.21
2023-02-06T18:24:21.870Z,-2.24
2023-02-06T18:26:49.049Z,-2.34
2023-02-06T18:29:16.087Z,-2.17
2023-02-06T18:31:43.087Z,-2.46
2023-02-06T18:34:11.837Z,-2.38
2023-02-06T18:36:39.158Z,-2.41
2023-02-06T18:39:07.578Z,-2.35
2023-02-06T18:41:53.397Z,-2.35
2023-02-06T18:44:21.064Z,-2.37
2023-02-06T18:46:48.128Z,-2.21
2023-02-06T18:49:15.197Z,-2.12
2023-02-06T18:51:42.225Z,-2.07
2023-02-06T18:54:10.182Z,-2.03
2023-02-06T18:56:38.587Z,-2.01
2023-02-06T18:59:06.625Z,-2.08
2023-02-06T19:01:33.677Z,-2.05
2023-02-06T19:04:00.780Z,-2.03
2023-02-06T19:06:32.294Z,-2.11
2023-02-06T19:08:59.736Z,-1.97
2023-02-06T19:11:27.282Z,-1.95
2023-02-06T19:13:54.974Z,-1.90
2023-02-06T19:16:22.294Z,-1.95
2023-02-06T19:18:50.134Z,-1.99
2023-02-06T19:21:20.120Z,-1.99
2023-02-06T19:23:52.665Z,-1.99
2023-02-06T19:26:19.743Z,-2.09
2023-02-06T19:28:46.831Z,-2.30
2023-02-06T19:31:15.592Z,-2.51
2023-02-06T19:33:42.742Z,-2.57
2023-02-06T19:36:15.961Z,-2.61
2023-02-06T19:38:43.996Z,-2.49
2023-02-06T19:41:13.411Z,-2.48
2023-02-06T19:43:41.407Z,-2.65
2023-02-06T19:46:15.237Z,-2.58
2023-02-06T19:48:44.184Z,-3.23
2023-02-06T19:51:17.600Z,-3.09
2023-02-06T19:53:45.951Z,-2.92
2023-02-06T19:56:19.933Z,-2.90
2023-02-06T19:58:47.281Z,-2.84
2023-02-06T20:01:16.341Z,-2.83
2023-02-06T20:03:44.516Z,-3.17
2023-02-06T20:06:14.389Z,-2.67
2023-02-06T20:08:43.215Z,-3.03
2023-02-06T20:11:22.656Z,-2.65
2023-02-06T20:13:52.331Z,-2.73
2023-02-06T20:16:24.984Z,-2.86
2023-02-06T20:18:52.480Z,-3.02
2023-02-06T20:21:29.469Z,-3.07
2023-02-06T20:23:57.810Z,-2.67
2023-02-06T20:26:27.668Z,-2.97
2023-02-06T20:28:55.584Z,-2.68
2023-02-06T20:31:23.419Z,-2.67
2023-02-06T20:33:50.874Z,-2.80
2023-02-06T20:36:23.902Z,-2.92
2023-02-06T20:38:56.539Z,-2.80
2023-02-06T20:41:27.833Z,-2.88
2023-02-06T20:43:57.438Z,-3.07
2023-02-06T20:46:26.255Z,-3.11
2023-02-06T20:48:58.450Z,-2.93
2023-02-06T20:51:26.139Z,-3.00
2023-02-06T20:53:53.502Z,-3.18
2023-02-06T20:56:21.820Z,-2.94
2023-02-06T20:58:51.191Z,-2.82
2023-02-06T21:01:23.147Z,-2.87
2023-02-06T21:03:52.014Z,-2.78
2023-02-06T21:06:19.170Z,-2.73
2023-02-06T21:08:47.415Z,-2.96
2023-02-06T21:11:14.417Z,-2.65
2023-02-06T21:13:41.558Z,-2.60
2023-02-06T21:16:12.411Z,-2.76
2023-02-06T21:18:42.751Z,-2.72
2023-02-06T21:21:13.480Z,-2.95
2023-02-06T21:23:42.315Z,-2.97
2023-02-06T21:26:12.170Z,-3.00
2023-02-06T21:28:40.839Z,-2.86
2023-02-06T21:31:12.683Z,-2.84
2023-02-06T21:33:39.917Z,-2.84
2023-02-06T21:36:07.868Z,-2.93
2023-02-06T21:38:35.851Z,-2.85
2023-02-06T21:41:16.863Z,-2.78
2023-02-06T21:43:44.301Z,-2.80
2023-02-06T21:46:13.234Z,-2.91
2023-02-06T21:48:41.276Z,-2.76
2023-02-06T21:51:16.895Z,-2.80
2023-02-06T21:53:45.648Z,-2.72
2023-02-06T21:56:24.383Z,-2.71
2023-02-06T21:58:52.350Z,-2.72
2023-02-06T22:01:22.424Z,-2.69
2023-02-06T22:03:50.047Z,-2.64
2023-02-06T22:06:19.932Z,-3.10
2023-02-06T22:08:51.616Z,-2.60
2023-02-06T22:11:23.069Z,-2.55
2023-02-06T22:13:50.813Z,-2.64
2023-02-06T22:16:23.159Z,-2.55
2023-02-06T22:18:50.626Z,-2.57
2023-02-06T22:21:23.347Z,-2.53
2023-02-06T22:23:51.422Z,-2.52
2023-02-06T22:26:21.578Z,-2.86
2023-02-06T22:28:48.736Z,-2.61
2023-02-06T22:31:19.407Z,-2.56
2023-02-06T22:33:46.541Z,-2.56
2023-02-06T22:36:20.000Z,-2.75
2023-02-06T22:38:48.322Z,-2.71
2023-02-06T22:41:17.462Z,-2.57
2023-02-06T22:43:45.852Z,-2.67
2023-02-06T22:46:21.914Z,-2.61
2023-02-06T22:48:49.456Z,-2.77
2023-02-06T22:51:17.294Z,-2.71
2023-02-06T22:53:44.504Z,-2.77
2023-02-06T22:56:31.270Z,-2.66
2023-02-06T22:59:04.253Z,-2.62
2023-02-06T23:01:37.161Z,-2.95
2023-02-06T23:04:07.019Z,-2.88
2023-02-06T23:06:35.421Z,-2.84
2023-02-06T23:09:05.286Z,-3.03
2023-02-06T23:11:32.981Z,-2.95
2023-02-06T23:14:02.618Z,-2.83
2023-02-06T23:16:32.016Z,-2.85
2023-02-06T23:19:02.066Z,-2.98
2023-02-06T23:21:29.122Z,-2.90
2023-02-06T23:23:57.095Z,-3.15
2023-02-06T23:26:24.631Z,-3.16
2023-02-06T23:28:51.968Z,-3.17
2023-02-06T23:31:19.180Z,-3.28
2023-02-06T23:33:46.212Z,-3.09
2023-02-06T23:36:16.434Z,-3.22
2023-02-06T23:38:43.915Z,-3.22
2023-02-06T23:41:20.468Z,-3.07
2023-02-06T23:43:54.564Z,-3.10
2023-02-06T23:46:22.965Z,-3.03
2023-02-06T23:48:50.813Z,-3.10
2023-02-06T23:51:19.775Z,-3.01
2023-02-06T23:53:47.875Z,-3.03
2023-02-06T23:56:20.504Z,-3.00
2023-02-06T23:58:47.678Z,-3.06
